createdAt,value
2023-01-22T00:01:38.676Z,-0.93
2023-01-22T00:03:40.319Z,-0.95
2023-01-22T00:05:41.846Z,-0.95
2023-01-22T00:07:43.306Z,-0.94
2023-01-22T00:09:45.188Z,-0.93
2023-01-22T00:11:46.491Z,-0.92
2023-01-22T00:13:47.619Z,-0.93
2023-01-22T00:15:48.738Z,-0.94
2023-01-22T00:17:49.987Z,-0.94
2023-01-22T00:19:51.938Z,-0.89
2023-01-22T00:21:53.939Z,-0.9
2023-01-22T00:23:56.000Z,-0.87
2023-01-22T00:25:57.091Z,-0.84
2023-01-22T00:27:58.204Z,-0.85
2023-01-22T00:29:59.658Z,-0.85
2023-01-22T00:32:01.637Z,-0.87
2023-01-22T00:34:02.911Z,-0.87
2023-01-22T00:36:04.401Z,-0.84
2023-01-22T00:38:06.020Z,-0.83
2023-01-22T00:40:07.476Z,-0.82
2023-01-22T00:42:08.652Z,-0.83
2023-01-22T00:44:09.791Z,-0.8
2023-01-22T00:46:11.707Z,-0.82
2023-01-22T00:48:13.399Z,-0.81
2023-01-22T00:50:15.193Z,-0.83
2023-01-22T00:52:16.173Z,-0.81
2023-01-22T00:54:17.625Z,-0.79
2023-01-22T00:56:18.784Z,-0.8
2023-01-22T00:58:20.126Z,-0.81
2023-01-22T01:00:21.257Z,-0.76
2023-01-22T01:02:22.856Z,-0.79
2023-01-22T01:04:24.599Z,-0.76
2023-01-22T01:06:26.257Z,-0.76
2023-01-22T01:08:28.190Z,-0.74
2023-01-22T01:10:30.021Z,-0.74
2023-01-22T01:12:31.134Z,-0.73
2023-01-22T01:14:32.696Z,-0.75
2023-01-22T01:16:34.026Z,-0.72
2023-01-22T01:18:35.734Z,-0.72
2023-01-22T01:20:37.436Z,-0.72
2023-01-22T01:22:39.437Z,-0.76
2023-01-22T01:24:40.951Z,-0.72
2023-01-22T01:26:42.717Z,-0.73
2023-01-22T01:28:43.831Z,-0.76
2023-01-22T01:30:45.903Z,-0.76
2023-01-22T01:32:47.202Z,-0.78
2023-01-22T01:34:49.229Z,-0.77
2023-01-22T01:36:51.001Z,-0.81
2023-01-22T01:38:52.307Z,-0.85
2023-01-22T01:40:53.426Z,-0.84
2023-01-22T01:42:54.791Z,-0.83
2023-01-22T01:44:56.826Z,-0.8
2023-01-22T01:46:58.265Z,-0.84
2023-01-22T01:49:00.116Z,-0.84
2023-01-22T01:51:01.513Z,-0.81
2023-01-22T01:53:02.777Z,-0.83
2023-01-22T01:55:04.227Z,-0.85
2023-01-22T01:57:05.856Z,-0.85
2023-01-22T01:59:07.753Z,-0.89
2023-01-22T02:01:09.567Z,-0.91
2023-01-22T02:03:11.337Z,-0.85
2023-01-22T02:05:12.650Z,-0.89
2023-01-22T02:07:14.191Z,-0.91
2023-01-22T02:09:15.964Z,-0.92
2023-01-22T02:11:17.045Z,-0.91
2023-01-22T02:13:18.370Z,-0.91
2023-01-22T02:15:19.573Z,-0.94
2023-01-22T02:17:21.490Z,-0.92
2023-01-22T02:19:23.244Z,-0.92
2023-01-22T02:21:24.581Z,-0.9
2023-01-22T02:23:26.500Z,-0.88
2023-01-22T02:25:27.934Z,-0.86
2023-01-22T02:27:29.937Z,-0.9
2023-01-22T02:29:31.811Z,-0.9
2023-01-22T02:31:33.016Z,-0.93
2023-01-22T02:33:34.093Z,-0.96
2023-01-22T02:35:35.417Z,-0.94
2023-01-22T02:37:36.890Z,-0.94
2023-01-22T02:39:38.120Z,-0.95
2023-01-22T02:41:39.404Z,-0.94
2023-01-22T02:43:40.843Z,-0.95
2023-01-22T02:45:42.334Z,-0.93
2023-01-22T02:47:43.505Z,-0.94
2023-01-22T02:49:44.788Z,-0.93
2023-01-22T02:51:46.697Z,-0.93
2023-01-22T02:53:47.977Z,-0.95
2023-01-22T02:55:49.528Z,-0.94
2023-01-22T02:57:51.119Z,-0.94
2023-01-22T02:59:52.740Z,-0.93
2023-01-22T03:01:54.418Z,-0.95
2023-01-22T03:03:56.059Z,-0.97
2023-01-22T03:05:57.210Z,-0.98
2023-01-22T03:07:58.828Z,-0.96
2023-01-22T03:10:00.321Z,-0.97
2023-01-22T03:12:02.180Z,-0.95
2023-01-22T03:14:47.767Z,-0.94
2023-01-22T03:16:49.131Z,-0.94
2023-01-22T03:18:50.537Z,-0.93
2023-01-22T03:20:52.367Z,-0.95
2023-01-22T03:22:53.984Z,-0.92
2023-01-22T03:24:55.309Z,-0.95
2023-01-22T03:26:56.851Z,-0.93
2023-01-22T03:28:58.530Z,-0.92
2023-01-22T03:30:59.965Z,-0.92
2023-01-22T03:33:01.908Z,-0.93
2023-01-22T03:35:03.765Z,-0.93
2023-01-22T03:37:05.261Z,-0.88
2023-01-22T03:39:07.178Z,-0.91
2023-01-22T03:41:09.167Z,-0.91
2023-01-22T03:43:10.410Z,-0.92
2023-01-22T03:45:11.842Z,-0.88
2023-01-22T03:47:13.576Z,-0.89
2023-01-22T03:49:15.152Z,-0.86
2023-01-22T03:51:16.408Z,-0.83
2023-01-22T03:53:17.742Z,-0.8
2023-01-22T03:55:19.525Z,-0.77
2023-01-22T03:57:21.247Z,-0.75
2023-01-22T03:59:23.266Z,-0.75
2023-01-22T04:01:24.702Z,-0.73
2023-01-22T04:03:26.671Z,-0.72
2023-01-22T04:05:28.173Z,-0.73
2023-01-22T04:07:29.743Z,-0.71
2023-01-22T04:09:31.323Z,-0.76
2023-01-22T04:11:33.382Z,-0.74
2023-01-22T04:13:34.794Z,-0.76
2023-01-22T04:15:36.758Z,-0.74
2023-01-22T04:19:39.904Z,-0.68
2023-01-22T04:21:41.668Z,-0.7
2023-01-22T04:23:43.013Z,-0.74
2023-01-22T04:25:44.173Z,-0.76
2023-01-22T04:27:45.985Z,-0.76
2023-01-22T04:29:47.132Z,-0.78
2023-01-22T04:31:48.253Z,-0.76
2023-01-22T04:33:49.617Z,-0.77
2023-01-22T04:35:50.840Z,-0.74
2023-01-22T04:37:52.329Z,-0.66
2023-01-22T04:39:53.538Z,-0.62
2023-01-22T04:41:55.538Z,-0.61
2023-01-22T04:43:57.452Z,-0.62
2023-01-22T04:45:58.879Z,-0.6
2023-01-22T04:48:00.329Z,-0.63
2023-01-22T04:50:02.195Z,-0.62
2023-01-22T04:52:04.227Z,-0.64
2023-01-22T04:54:05.845Z,-0.66
2023-01-22T04:56:08.098Z,-0.59
2023-01-22T04:58:09.558Z,-0.51
2023-01-22T05:02:12.602Z,-0.49
2023-01-22T05:04:13.792Z,-0.52
2023-01-22T05:06:14.901Z,-0.51
2023-01-22T05:08:16.662Z,-0.44
2023-01-22T05:10:18.749Z,-0.45
2023-01-22T05:12:20.116Z,-0.41
2023-01-22T05:14:21.834Z,-0.38
2023-01-22T05:16:23.728Z,-0.41
2023-01-22T05:18:24.960Z,-0.4
2023-01-22T05:20:26.243Z,-0.38
2023-01-22T05:22:28.204Z,-0.39
2023-01-22T05:24:29.937Z,-0.37
2023-01-22T05:26:31.608Z,-0.34
2023-01-22T05:28:33.525Z,-0.34
2023-01-22T05:30:34.833Z,-0.36
2023-01-22T05:32:36.224Z,-0.35
2023-01-22T05:34:37.382Z,-0.33
2023-01-22T05:36:38.729Z,-0.37
2023-01-22T05:38:40.722Z,-0.4
2023-01-22T05:40:42.353Z,-0.42
2023-01-22T05:42:43.493Z,-0.41
2023-01-22T05:44:44.873Z,-0.41
2023-01-22T05:46:46.113Z,-0.34
2023-01-22T05:48:47.531Z,-0.36
2023-01-22T05:50:49.369Z,-0.38
2023-01-22T05:52:50.515Z,-0.38
2023-01-22T05:54:52.357Z,-0.39
2023-01-22T05:56:54.424Z,-0.36
2023-01-22T05:58:55.703Z,-0.31
2023-01-22T06:00:57.352Z,-0.31
2023-01-22T06:02:59.236Z,-0.32
2023-01-22T06:05:00.429Z,-0.34
2023-01-22T06:07:01.887Z,-0.37
2023-01-22T06:09:03.910Z,-0.36
2023-01-22T06:11:05.529Z,-0.33
2023-01-22T06:13:07.144Z,-0.33
2023-01-22T06:15:08.517Z,-0.31
2023-01-22T06:17:09.726Z,-0.38
2023-01-22T06:19:11.391Z,-0.33
2023-01-22T06:21:13.032Z,-0.28
2023-01-22T06:23:14.816Z,-0.26
2023-01-22T06:25:16.595Z,-0.27
2023-01-22T06:27:18.464Z,-0.3
2023-01-22T06:29:19.521Z,-0.33
2023-01-22T06:31:21.608Z,-0.32
2023-01-22T06:33:23.082Z,-0.33
2023-01-22T06:35:24.642Z,-0.28
2023-01-22T06:37:26.498Z,-0.31
2023-01-22T06:39:27.624Z,-0.34
2023-01-22T06:41:28.668Z,-0.35
2023-01-22T06:43:29.979Z,-0.33
2023-01-22T06:45:31.095Z,-0.31
2023-01-22T06:47:33.083Z,-0.34
2023-01-22T06:49:34.156Z,-0.37
2023-01-22T06:51:43.527Z,-0.35
2023-01-22T06:53:36.715Z,-0.38
2023-01-22T06:55:38.523Z,-0.36
2023-01-22T06:57:40.230Z,-0.36
2023-01-22T06:59:41.711Z,-0.37
2023-01-22T07:01:43.637Z,-0.37
2023-01-22T07:03:54.380Z,-0.39
2023-01-22T07:05:46.487Z,-0.4
2023-01-22T07:07:48.215Z,-0.4
2023-01-22T07:09:50.110Z,-0.36
2023-01-22T07:11:51.370Z,-0.34
2023-01-22T07:13:52.701Z,-0.34
2023-01-22T07:15:54.563Z,-0.36
2023-01-22T07:17:55.900Z,-0.34
2023-01-22T07:19:57.213Z,-0.33
2023-01-22T07:21:59.236Z,-0.29
2023-01-22T07:24:01.150Z,-0.31
2023-01-22T07:26:02.944Z,-0.29
2023-01-22T07:28:04.398Z,-0.26
2023-01-22T07:30:05.495Z,-0.26
2023-01-22T07:32:07.385Z,-0.24
2023-01-22T07:34:09.130Z,-0.23
2023-01-22T07:36:10.626Z,-0.23
2023-01-22T07:38:12.550Z,-0.16
2023-01-22T07:40:14.053Z,-0.18
2023-01-22T07:42:15.792Z,-0.16
2023-01-22T07:44:17.039Z,-0.18
2023-01-22T07:46:18.215Z,-0.14
2023-01-22T07:48:27.903Z,-0.15
2023-01-22T07:50:21.303Z,-0.12
2023-01-22T07:52:22.547Z,-0.1
2023-01-22T07:54:24.360Z,-0.08
2023-01-22T07:56:26.311Z,-0.08
2023-01-22T07:58:28.036Z,-0.07
2023-01-22T08:00:29.388Z,-0.05
2023-01-22T08:02:31.001Z,-0.05
2023-01-22T08:04:32.054Z,-0.01
2023-01-22T08:06:33.253Z,0
2023-01-22T08:08:34.891Z,0.01
2023-01-22T08:10:36.021Z,0
2023-01-22T08:12:37.312Z,0.03
2023-01-22T08:14:38.459Z,0.04
2023-01-22T08:16:39.924Z,0.07
2023-01-22T08:18:41.186Z,0.1
2023-01-22T08:20:42.890Z,0.13
2023-01-22T08:22:44.329Z,0.11
2023-01-22T08:24:45.741Z,0.16
2023-01-22T08:26:47.723Z,0.14
2023-01-22T08:28:49.012Z,0.19
2023-01-22T08:30:50.135Z,0.21
2023-01-22T08:32:51.955Z,0.2
2023-01-22T08:34:53.746Z,0.23
2023-01-22T08:36:55.735Z,0.27
2023-01-22T08:38:57.683Z,0.2
2023-01-22T08:40:59.506Z,0.2
2023-01-22T08:43:00.662Z,0.22
2023-01-22T08:45:02.671Z,0.21
2023-01-22T08:47:04.490Z,0.28
2023-01-22T08:49:05.933Z,0.24
2023-01-22T08:51:07.444Z,0.26
2023-01-22T08:53:09.086Z,0.27
2023-01-22T08:55:10.372Z,0.31
2023-01-22T08:57:12.089Z,0.34
2023-01-22T08:59:13.133Z,0.29
2023-01-22T09:01:14.239Z,0.31
2023-01-22T09:03:15.735Z,0.36
2023-01-22T09:05:17.336Z,0.4
2023-01-22T09:07:19.092Z,0.33
2023-01-22T09:09:20.783Z,0.39
2023-01-22T09:11:22.312Z,0.47
2023-01-22T09:13:24.331Z,0.44
2023-01-22T09:15:25.950Z,0.48
2023-01-22T09:17:27.997Z,0.51
2023-01-22T09:19:29.707Z,0.48
2023-01-22T09:21:31.653Z,0.53
2023-01-22T09:23:32.872Z,0.53
2023-01-22T09:25:34.067Z,0.54
2023-01-22T09:27:35.609Z,0.56
2023-01-22T09:29:37.180Z,0.59
2023-01-22T09:33:40.481Z,0.58
2023-01-22T09:35:41.841Z,0.59
2023-01-22T09:37:43.183Z,0.57
2023-01-22T09:39:44.416Z,0.57
2023-01-22T09:41:45.740Z,0.57
2023-01-22T09:43:46.955Z,0.65
2023-01-22T09:45:50.763Z,0.64
2023-01-22T09:47:49.894Z,0.57
2023-01-22T09:49:51.690Z,0.54
2023-01-22T09:51:53.176Z,0.52
2023-01-22T09:53:54.299Z,0.54
2023-01-22T09:55:55.772Z,0.57
2023-01-22T09:57:56.952Z,0.59
2023-01-22T10:00:42.157Z,0.51
2023-01-22T10:02:43.455Z,0.61
2023-01-22T10:04:44.518Z,0.56
2023-01-22T10:06:46.201Z,0.57
2023-01-22T10:08:47.515Z,0.68
2023-01-22T10:10:49.249Z,0.73
2023-01-22T10:12:50.451Z,0.76
2023-01-22T10:14:51.503Z,0.79
2023-01-22T10:16:52.589Z,0.77
2023-01-22T10:18:56.517Z,0.79
2023-01-22T10:20:55.756Z,0.72
2023-01-22T10:22:57.660Z,0.64
2023-01-22T10:24:59.484Z,0.58
2023-01-22T10:27:00.643Z,0.58
2023-01-22T10:29:02.487Z,0.62
2023-01-22T10:31:03.665Z,0.72
2023-01-22T10:33:04.617Z,0.6
2023-01-22T10:35:06.014Z,0.65
2023-01-22T10:37:07.942Z,0.7
2023-01-22T10:39:09.215Z,0.69
2023-01-22T10:41:11.002Z,0.82
2023-01-22T10:43:12.261Z,0.77
2023-01-22T10:45:13.729Z,0.8
2023-01-22T10:47:15.356Z,0.82
2023-01-22T10:49:16.867Z,0.86
2023-01-22T10:51:18.839Z,0.87
2023-01-22T10:53:20.472Z,0.76
2023-01-22T10:55:22.436Z,0.83
2023-01-22T10:57:24.200Z,0.89
2023-01-22T10:59:25.734Z,0.87
2023-01-22T11:01:27.140Z,1.06
2023-01-22T11:03:28.742Z,0.94
2023-01-22T11:05:30.233Z,1.03
2023-01-22T11:07:32.746Z,1.1
2023-01-22T11:09:33.377Z,1.12
2023-01-22T11:11:35.270Z,1.12
2023-01-22T11:13:37.166Z,1.17
2023-01-22T11:15:38.245Z,1.16
2023-01-22T11:17:39.673Z,1.17
2023-01-22T11:19:41.282Z,1.18
2023-01-22T11:21:42.729Z,1.21
2023-01-22T11:23:44.236Z,1.42
2023-01-22T11:25:45.266Z,1.46
2023-01-22T11:27:47.026Z,1.39
2023-01-22T11:29:48.061Z,1.34
2023-01-22T11:31:50.010Z,1.32
2023-01-22T11:33:50.921Z,1.34
2023-01-22T11:35:52.651Z,1.39
2023-01-22T11:37:53.692Z,1.3
2023-01-22T11:39:55.414Z,1.17
2023-01-22T11:41:57.243Z,1.19
2023-01-22T11:43:58.601Z,1.26
2023-01-22T11:46:00.470Z,1.32
2023-01-22T11:48:02.335Z,1.39
2023-01-22T11:50:03.770Z,1.25
2023-01-22T11:52:05.456Z,1.3
2023-01-22T11:54:07.273Z,1.38
2023-01-22T11:56:08.783Z,1.52
2023-01-22T11:58:10.218Z,1.43
2023-01-22T12:00:11.527Z,1.36
2023-01-22T12:02:13.266Z,1.25
2023-01-22T12:04:14.761Z,1.38
2023-01-22T12:06:15.749Z,1.28
2023-01-22T12:08:17.075Z,1.29
2023-01-22T12:10:19.125Z,1.28
2023-01-22T12:12:20.353Z,1.3
2023-01-22T12:14:22.175Z,1.3
2023-01-22T12:16:23.707Z,1.26
2023-01-22T12:18:25.163Z,1.3
2023-01-22T12:20:26.555Z,1.22
2023-01-22T12:22:28.372Z,1.28
2023-01-22T12:24:29.553Z,1.3
2023-01-22T12:26:30.499Z,1.25
2023-01-22T12:28:31.782Z,1.33
2023-01-22T12:30:33.644Z,1.3
2023-01-22T12:34:35.946Z,1.42
2023-01-22T12:36:37.543Z,1.37
2023-01-22T12:38:38.632Z,1.3
2023-01-22T12:40:39.776Z,1.32
2023-01-22T12:42:40.946Z,1.34
2023-01-22T12:44:42.228Z,1.27
2023-01-22T12:46:43.583Z,1.27
2023-01-22T12:48:44.736Z,1.32
2023-01-22T12:50:46.369Z,1.32
2023-01-22T12:52:48.190Z,1.44
2023-01-22T12:54:49.886Z,1.49
2023-01-22T12:56:51.420Z,1.47
2023-01-22T12:58:53.303Z,1.47
2023-01-22T13:00:54.667Z,1.48
2023-01-22T13:02:55.809Z,1.43
2023-01-22T13:04:57.747Z,1.32
2023-01-22T13:07:00.578Z,1.41
2023-01-22T13:09:00.616Z,1.36
2023-01-22T13:11:01.834Z,1.46
2023-01-22T13:13:03.801Z,1.54
2023-01-22T13:15:04.876Z,1.47
2023-01-22T13:17:06.862Z,1.51
2023-01-22T13:19:07.923Z,1.55
2023-01-22T13:21:09.619Z,1.46
2023-01-22T13:23:11.525Z,1.47
2023-01-22T13:25:12.588Z,1.51
2023-01-22T13:27:14.151Z,1.38
2023-01-22T13:29:15.925Z,1.42
2023-01-22T13:31:17.866Z,1.35
2023-01-22T13:33:18.917Z,1.35
2023-01-22T13:35:20.692Z,1.35
2023-01-22T13:37:22.104Z,1.46
2023-01-22T13:39:23.614Z,1.49
2023-01-22T13:41:25.412Z,1.4
2023-01-22T13:43:27.036Z,1.39
2023-01-22T13:45:28.377Z,1.47
2023-01-22T13:47:30.214Z,1.48
2023-01-22T13:49:31.472Z,1.37
2023-01-22T13:51:32.833Z,1.49
2023-01-22T13:53:34.092Z,1.65
2023-01-22T13:55:35.304Z,1.76
2023-01-22T13:57:36.455Z,1.67
2023-01-22T13:59:37.678Z,1.68
2023-01-22T14:01:39.465Z,1.75
2023-01-22T14:03:40.802Z,1.76
2023-01-22T14:05:42.610Z,1.68
2023-01-22T14:07:44.243Z,1.76
2023-01-22T14:09:45.886Z,1.89
2023-01-22T14:11:48.194Z,1.8
2023-01-22T14:13:48.306Z,1.83
2023-01-22T14:15:49.863Z,1.84
2023-01-22T14:17:51.562Z,1.69
2023-01-22T14:19:52.656Z,1.71
2023-01-22T14:21:54.640Z,1.68
2023-01-22T14:23:56.233Z,1.66
2023-01-22T14:25:57.423Z,1.75
2023-01-22T14:27:59.401Z,1.72
2023-01-22T14:30:00.514Z,1.74
2023-01-22T14:32:01.871Z,1.7
2023-01-22T14:34:03.202Z,1.67
2023-01-22T14:36:04.474Z,1.61
2023-01-22T14:38:06.311Z,1.71
2023-01-22T14:40:08.199Z,1.69
2023-01-22T14:42:09.298Z,1.63
2023-01-22T14:44:10.537Z,1.54
2023-01-22T14:46:12.500Z,1.61
2023-01-22T14:48:14.326Z,1.46
2023-01-22T14:50:15.707Z,1.39
2023-01-22T14:52:17.460Z,1.37
2023-01-22T14:54:18.518Z,1.29
2023-01-22T14:56:19.655Z,1.28
2023-01-22T14:58:20.907Z,1.24
2023-01-22T15:00:22.358Z,1.25
2023-01-22T15:02:23.856Z,1.28
2023-01-22T15:04:25.709Z,1.25
2023-01-22T15:06:26.887Z,1.23
2023-01-22T15:08:28.390Z,1.18
2023-01-22T15:10:30.260Z,1.13
2023-01-22T15:12:31.894Z,1.13
2023-01-22T15:14:33.796Z,1.18
2023-01-22T15:16:35.560Z,1.18
2023-01-22T15:18:36.539Z,1.13
2023-01-22T15:20:38.173Z,1.08
2023-01-22T15:22:39.215Z,1.07
2023-01-22T15:24:41.083Z,1.04
2023-01-22T15:26:42.845Z,1.04
2023-01-22T15:28:44.777Z,1.03
2023-01-22T15:30:53.910Z,0.99
2023-01-22T15:32:47.071Z,0.99
2023-01-22T15:34:48.886Z,0.95
2023-01-22T15:36:50.348Z,0.93
2023-01-22T15:38:51.694Z,0.86
2023-01-22T15:40:53.662Z,0.85
2023-01-22T15:42:55.423Z,0.88
2023-01-22T15:44:56.749Z,0.86
2023-01-22T15:46:58.552Z,0.87
2023-01-22T15:49:00.255Z,0.86
2023-01-22T15:51:02.030Z,0.83
2023-01-22T15:53:03.885Z,0.86
2023-01-22T15:55:05.222Z,0.82
2023-01-22T15:57:06.818Z,0.83
2023-01-22T15:59:08.825Z,0.79
2023-01-22T16:01:10.710Z,0.78
2023-01-22T16:03:12.619Z,0.73
2023-01-22T16:05:14.633Z,0.68
2023-01-22T16:07:16.060Z,0.72
2023-01-22T16:09:17.775Z,0.73
2023-01-22T16:11:19.177Z,0.67
2023-01-22T16:13:20.566Z,0.6
2023-01-22T16:15:22.498Z,0.54
2023-01-22T16:17:23.847Z,0.55
2023-01-22T16:19:25.580Z,0.53
2023-01-22T16:21:26.852Z,0.52
2023-01-22T16:23:28.880Z,0.54
2023-01-22T16:25:30.686Z,0.49
2023-01-22T16:27:31.803Z,0.5
2023-01-22T16:29:33.811Z,0.45
2023-01-22T16:31:35.478Z,0.44
2023-01-22T16:33:36.873Z,0.47
2023-01-22T16:35:38.376Z,0.49
2023-01-22T16:37:39.857Z,0.54
2023-01-22T16:39:41.392Z,0.54
2023-01-22T16:41:42.764Z,0.53
2023-01-22T16:43:44.271Z,0.51
2023-01-22T16:44:28.229Z,0.52
2023-01-22T16:46:29.907Z,0.51
2023-01-22T16:48:31.719Z,0.51
2023-01-22T16:50:33.558Z,0.5
2023-01-22T16:52:34.647Z,0.5
2023-01-22T16:54:36.703Z,0.49
2023-01-22T16:56:38.174Z,0.49
2023-01-22T17:00:41.161Z,0.54
2023-01-22T17:02:42.248Z,0.52
2023-01-22T17:04:43.525Z,0.52
2023-01-22T17:06:44.636Z,0.51
2023-01-22T17:08:46.328Z,0.47
2023-01-22T17:10:47.511Z,0.51
2023-01-22T17:12:48.591Z,0.52
2023-01-22T17:14:50.202Z,0.54
2023-01-22T17:16:51.846Z,0.55
2023-01-22T17:18:53.312Z,0.55
2023-01-22T17:21:02.040Z,0.56
2023-01-22T17:22:56.653Z,0.57
2023-01-22T17:24:58.536Z,0.55
2023-01-22T17:26:59.902Z,0.52
2023-01-22T17:29:01.377Z,0.52
2023-01-22T17:31:02.659Z,0.53
2023-01-22T17:33:04.266Z,0.55
2023-01-22T17:35:05.527Z,0.55
2023-01-22T17:37:06.658Z,0.51
2023-01-22T17:39:08.048Z,0.51
2023-01-22T17:41:09.399Z,0.49
2023-01-22T17:43:10.972Z,0.49
2023-01-22T17:45:12.637Z,0.45
2023-01-22T17:47:13.999Z,0.4
2023-01-22T17:49:15.839Z,0.39
2023-01-22T17:51:17.110Z,0.41
2023-01-22T17:53:18.329Z,0.35
2023-01-22T17:55:20.437Z,0.36
2023-01-22T17:57:22.030Z,0.37
2023-01-22T17:59:23.772Z,0.34
2023-01-22T18:01:25.681Z,0.36
2023-01-22T18:03:26.832Z,0.36
2023-01-22T18:05:28.646Z,0.34
2023-01-22T18:07:30.483Z,0.33
2023-01-22T18:09:31.708Z,0.3
2023-01-22T18:11:33.674Z,0.31
2023-01-22T18:13:35.671Z,0.32
2023-01-22T18:15:36.938Z,0.3
2023-01-22T18:17:38.086Z,0.27
2023-01-22T18:19:39.902Z,0.23
2023-01-22T18:21:41.168Z,0.18
2023-01-22T18:23:42.775Z,0.16
2023-01-22T18:25:44.143Z,0.14
2023-01-22T18:27:45.541Z,0.08
2023-01-22T18:29:46.813Z,0.08
2023-01-22T18:31:48.631Z,0.09
2023-01-22T18:33:50.105Z,0.1
2023-01-22T18:35:51.847Z,0.06
2023-01-22T18:37:53.405Z,0.09
2023-01-22T18:39:55.208Z,0.11
2023-01-22T18:41:57.002Z,0.11
2023-01-22T18:43:59.014Z,0.12
2023-01-22T18:46:00.786Z,0.1
2023-01-22T18:48:02.215Z,0.09
2023-01-22T18:50:04.156Z,0.09
2023-01-22T18:52:05.355Z,0.11
2023-01-22T18:54:07.334Z,0.13
2023-01-22T18:56:08.497Z,0.13
2023-01-22T18:58:10.254Z,0.1
2023-01-22T19:00:12.280Z,0.07
2023-01-22T19:02:14.013Z,0.06
2023-01-22T19:04:15.925Z,0.04
2023-01-22T19:06:17.332Z,0.03
2023-01-22T19:08:18.841Z,0.02
2023-01-22T19:10:20.223Z,0.02
2023-01-22T19:12:22.237Z,0.04
2023-01-22T19:14:23.476Z,0.03
2023-01-22T19:16:25.408Z,0.04
2023-01-22T19:18:28.335Z,0.03
2023-01-22T19:20:27.696Z,0.03
2023-01-22T19:22:29.062Z,0.03
2023-01-22T19:24:30.243Z,0.02
2023-01-22T19:26:31.841Z,0.01
2023-01-22T19:28:33.294Z,0.02
2023-01-22T19:30:34.658Z,0
2023-01-22T19:32:35.857Z,0.01
2023-01-22T19:34:37.145Z,0
2023-01-22T19:36:39.059Z,0
2023-01-22T19:38:40.427Z,0
2023-01-22T19:40:41.683Z,0
2023-01-22T19:42:42.748Z,0.02
2023-01-22T19:44:44.375Z,0.01
2023-01-22T19:46:45.779Z,0.02
2023-01-22T19:48:47.367Z,0.02
2023-01-22T19:50:48.790Z,-0.01
2023-01-22T19:52:50.110Z,0
2023-01-22T19:54:51.706Z,0.01
2023-01-22T19:56:53.255Z,0.01
2023-01-22T19:58:54.916Z,0.03
2023-01-22T20:00:56.327Z,0
2023-01-22T20:02:58.131Z,0.02
2023-01-22T20:04:59.227Z,-0.02
2023-01-22T20:07:00.437Z,0
2023-01-22T20:09:01.551Z,0
2023-01-22T20:11:03.309Z,0.03
2023-01-22T20:13:04.682Z,0.01
2023-01-22T20:15:06.346Z,0.03
2023-01-22T20:17:07.710Z,0.03
2023-01-22T20:19:09.120Z,0.02
2023-01-22T20:21:10.147Z,0.04
2023-01-22T20:23:11.960Z,0.02
2023-01-22T20:25:13.332Z,0.01
2023-01-22T20:27:14.463Z,0.01
2023-01-22T20:29:15.783Z,0.03
2023-01-22T20:31:17.909Z,0.01
2023-01-22T20:33:19.072Z,0
2023-01-22T20:35:20.480Z,0.01
2023-01-22T20:39:23.539Z,0.01
2023-01-22T20:41:25.546Z,0.01
2023-01-22T20:43:27.325Z,0.01
2023-01-22T20:45:29.346Z,0.02
2023-01-22T20:47:31.223Z,0.03
2023-01-22T20:49:33.185Z,0.01
2023-01-22T20:51:34.686Z,0.01
2023-01-22T20:53:35.747Z,0.03
2023-01-22T20:55:37.212Z,0.04
2023-01-22T20:57:38.616Z,0.06
2023-01-22T20:59:40.535Z,0.04
2023-01-22T21:01:42.471Z,0.01
2023-01-22T21:03:43.664Z,0.03
2023-01-22T21:05:45.635Z,0.03
2023-01-22T21:07:47.455Z,0.02
2023-01-22T21:09:49.374Z,0.01
2023-01-22T21:11:51.037Z,0
2023-01-22T21:13:52.765Z,0.02
2023-01-22T21:15:53.816Z,0.03
2023-01-22T21:17:55.810Z,0
2023-01-22T21:19:57.613Z,0.02
2023-01-22T21:21:59.462Z,0.02
2023-01-22T21:24:00.807Z,0.01
2023-01-22T21:26:02.317Z,0.01
2023-01-22T21:28:03.790Z,0
2023-01-22T21:30:05.173Z,-0.01
2023-01-22T21:32:14.437Z,-0.01
2023-01-22T21:34:07.921Z,-0.01
2023-01-22T21:36:09.107Z,-0.02
2023-01-22T21:38:10.840Z,-0.03
2023-01-22T21:40:12.392Z,-0.07
2023-01-22T21:42:13.752Z,-0.04
2023-01-22T21:44:14.827Z,-0.01
2023-01-22T21:46:16.808Z,0
2023-01-22T21:48:18.177Z,-0.02
2023-01-22T21:50:19.566Z,-0.05
2023-01-22T21:52:20.699Z,-0.12
2023-01-22T21:54:22.168Z,-0.06
2023-01-22T21:56:24.005Z,-0.05
2023-01-22T21:58:25.100Z,-0.09
2023-01-22T22:00:26.995Z,-0.08
2023-01-22T22:04:30.032Z,-0.19
2023-01-22T22:06:31.222Z,-0.19
2023-01-22T22:08:33.108Z,-0.18
2023-01-22T22:10:34.801Z,-0.2
2023-01-22T22:12:36.115Z,-0.17
2023-01-22T22:14:37.750Z,-0.17
2023-01-22T22:16:39.173Z,-0.17
2023-01-22T22:18:41.130Z,-0.15
2023-01-22T22:20:42.983Z,-0.14
2023-01-22T22:22:44.494Z,-0.13
2023-01-22T22:24:46.028Z,-0.13
2023-01-22T22:26:47.583Z,-0.13
2023-01-22T22:28:49.559Z,-0.14
2023-01-22T22:30:51.556Z,-0.11
2023-01-22T22:32:52.899Z,-0.07
2023-01-22T22:34:53.980Z,-0.06
2023-01-22T22:36:55.923Z,-0.05
2023-01-22T22:38:57.243Z,-0.04
2023-01-22T22:40:58.915Z,-0.04
2023-01-22T22:43:00.033Z,-0.02
2023-01-22T22:45:01.777Z,-0.03
2023-01-22T22:47:02.979Z,-0.02
2023-01-22T22:49:04.687Z,-0.02
2023-01-22T22:51:05.922Z,-0.05
2023-01-22T22:53:07.176Z,-0.02
2023-01-22T22:55:09.074Z,0.01
2023-01-22T22:57:10.691Z,-0.02
2023-01-22T22:59:12.754Z,-0.01
2023-01-22T23:01:13.911Z,0
2023-01-22T23:03:15.627Z,-0.01
2023-01-22T23:05:17.149Z,-0.05
2023-01-22T23:07:18.837Z,0
2023-01-22T23:09:20.734Z,-0.02
2023-01-22T23:11:22.596Z,-0.01
2023-01-22T23:13:23.826Z,0
2023-01-22T23:15:25.270Z,-0.01
2023-01-22T23:17:27.330Z,0
2023-01-22T23:19:29.261Z,0.01
2023-01-22T23:21:30.653Z,-0.01
2023-01-22T23:23:32.158Z,0
2023-01-22T23:25:34.014Z,-0.03
2023-01-22T23:27:35.668Z,-0.03
2023-01-22T23:29:36.808Z,-0.01
2023-01-22T23:30:20.878Z,-0.02
2023-01-22T23:32:22.704Z,-0.05
2023-01-22T23:34:24.044Z,-0.02
2023-01-22T23:36:25.419Z,-0.03
2023-01-22T23:38:27.470Z,-0.02
2023-01-22T23:40:29.066Z,-0.03
2023-01-22T23:42:30.971Z,-0.02
2023-01-22T23:44:32.357Z,-0.03
2023-01-22T23:46:34.126Z,-0.05
2023-01-22T23:48:35.631Z,0
2023-01-22T23:50:36.921Z,0
2023-01-22T23:52:38.942Z,-0.05
2023-01-22T23:54:40.920Z,0
2023-01-22T23:56:42.134Z,-0.02
2023-01-22T23:58:43.765Z,0
